Time;durP1;ratioP1;P1;durP2;ratioP2;P2;SDS_P1;SDS_P2;PMS_P1;PMS_P2;Temp;Humidity;BMP_temperature;BMP_pressure;BME280_temperature;BME280_humidity;BME280_pressure;Samples;Min_cycle;Max_cycle;Signal;HPM_P1;HPM_P2
2023/04/23 00:00:51;;;;;;;9.27;4.40;;;14.80;71.30;;;;;;5051916;28;20057;-69
2023/04/23 00:03:18;;;;;;;10.45;4.78;;;14.80;71.40;;;;;;5052858;28;20058;-69
2023/04/23 00:05:44;;;;;;;10.23;4.30;;;14.80;71.50;;;;;;5051166;28;20526;-69
2023/04/23 00:08:10;;;;;;;11.20;3.83;;;14.80;71.40;;;;;;5053153;28;20029;-69
2023/04/23 00:10:36;;;;;;;6.00;4.30;;;14.80;71.20;;;;;;5052800;28;20035;-70
2023/04/23 00:13:03;;;;;;;14.43;4.68;;;14.80;71.20;;;;;;5049081;28;20039;-73
2023/04/23 00:15:29;;;;;;;10.35;3.83;;;14.70;71.50;;;;;;5052463;28;20032;-69
2023/04/23 00:17:55;;;;;;;6.70;3.55;;;14.70;71.50;;;;;;5052299;28;20135;-69
2023/04/23 00:20:21;;;;;;;10.00;3.78;;;14.70;71.50;;;;;;5052766;28;20454;-69
2023/04/23 00:22:47;;;;;;;9.98;3.70;;;14.70;71.10;;;;;;5052258;28;20029;-69
2023/04/23 00:25:13;;;;;;;6.22;3.92;;;14.70;71.30;;;;;;5052593;28;20032;-69
2023/04/23 00:27:38;;;;;;;12.55;4.53;;;14.70;71.60;;;;;;5052213;28;20032;-70
2023/04/23 00:30:05;;;;;;;8.90;3.95;;;14.60;71.70;;;;;;5052544;28;20021;-69
2023/04/23 00:32:31;;;;;;;9.07;3.90;;;14.70;72.00;;;;;;5051313;28;20037;-69
2023/04/23 00:34:57;;;;;;;9.48;4.28;;;14.60;71.90;;;;;;5050914;28;20433;-69
2023/04/23 00:37:22;;;;;;;14.95;4.30;;;14.60;71.90;;;;;;5052273;28;20029;-69
2023/04/23 00:39:48;;;;;;;11.50;3.70;;;14.60;72.00;;;;;;5052147;28;20025;-69
2023/04/23 00:42:16;;;;;;;12.52;4.38;;;14.60;72.20;;;;;;5052170;28;20063;-69
2023/04/23 00:44:42;;;;;;;7.10;4.47;;;14.60;72.40;;;;;;5052021;28;20472;-69
2023/04/23 00:47:08;;;;;;;12.55;3.97;;;14.50;72.50;;;;;;5052156;28;20028;-69
2023/04/23 00:49:35;;;;;;;9.00;4.22;;;14.50;72.60;;;;;;5051142;28;20377;-69
2023/04/23 00:52:01;;;;;;;11.07;4.18;;;14.50;72.90;;;;;;5051034;28;20393;-69
2023/04/23 00:54:27;;;;;;;8.57;4.20;;;14.40;73.00;;;;;;5052065;28;20458;-70
2023/04/23 00:56:54;;;;;;;8.43;4.28;;;14.40;73.20;;;;;;5051624;28;20040;-69
2023/04/23 00:59:20;;;;;;;5.65;4.25;;;14.40;73.30;;;;;;5052384;28;20033;-69
2023/04/23 01:01:47;;;;;;;8.75;4.38;;;14.40;73.30;;;;;;5051882;28;20060;-69
2023/04/23 01:04:15;;;;;;;5.43;3.70;;;14.40;73.60;;;;;;5052242;28;20025;-69
2023/04/23 01:06:41;;;;;;;7.88;4.25;;;14.40;73.60;;;;;;5051899;28;20132;-69
2023/04/23 01:09:08;;;;;;;7.40;3.75;;;14.30;73.60;;;;;;5052222;28;20029;-69
2023/04/23 01:11:42;;;;;;;11.93;3.72;;;14.30;73.80;;;;;;5052217;28;20025;-69
2023/04/23 01:14:08;;;;;;;11.50;4.22;;;14.30;73.70;;;;;;5052424;28;20112;-70
2023/04/23 01:16:37;;;;;;;6.72;3.92;;;14.30;73.70;;;;;;5052133;28;20033;-69
2023/04/23 01:19:06;;;;;;;6.60;3.55;;;14.30;73.60;;;;;;5051718;28;20557;-69
2023/04/23 01:21:33;;;;;;;7.63;3.70;;;14.30;73.60;;;;;;5052105;28;20033;-69
2023/04/23 01:24:00;;;;;;;7.68;3.75;;;14.30;73.70;;;;;;5050402;28;20029;-69
2023/04/23 01:26:25;;;;;;;8.75;3.70;;;14.30;73.80;;;;;;5055504;28;20461;-69
2023/04/23 01:28:52;;;;;;;6.00;3.85;;;14.30;74.00;;;;;;5055356;28;20105;-69
2023/04/23 01:31:17;;;;;;;8.45;4.00;;;14.30;74.20;;;;;;5054561;28;20390;-69
2023/04/23 01:33:44;;;;;;;9.77;4.68;;;14.30;74.10;;;;;;5054905;28;20040;-70
2023/04/23 01:36:10;;;;;;;9.05;4.75;;;14.20;74.30;;;;;;5055681;28;20381;-69
2023/04/23 01:38:37;;;;;;;13.18;4.35;;;14.20;74.40;;;;;;5055537;28;20025;-69
2023/04/23 01:41:04;;;;;;;9.48;4.10;;;14.20;74.60;;;;;;5055083;28;20035;-69
2023/04/23 01:43:30;;;;;;;6.57;4.00;;;14.20;74.90;;;;;;5055404;28;20032;-69
2023/04/23 01:45:57;;;;;;;10.25;4.32;;;14.20;74.80;;;;;;5055060;28;20051;-68
2023/04/23 01:48:23;;;;;;;8.70;4.03;;;14.20;74.90;;;;;;5055589;28;20039;-68
2023/04/23 01:50:50;;;;;;;6.50;4.05;;;14.10;74.80;;;;;;5054914;28;20056;-70
2023/04/23 01:53:16;;;;;;;10.50;4.13;;;14.10;75.00;;;;;;5055295;28;20440;-69
2023/04/23 01:55:44;;;;;;;9.63;4.03;;;14.10;75.10;;;;;;5054666;28;20025;-70
2023/04/23 01:58:10;;;;;;;8.30;4.72;;;14.10;75.30;;;;;;5055221;28;20036;-69
2023/04/23 02:00:36;;;;;;;6.65;3.72;;;14.10;75.60;;;;;;5054918;28;20021;-69
2023/04/23 02:03:01;;;;;;;13.35;4.63;;;14.00;75.60;;;;;;5054392;28;20111;-69
2023/04/23 02:05:28;;;;;;;10.10;4.15;;;14.00;75.90;;;;;;5054745;28;20031;-69
2023/04/23 02:07:54;;;;;;;7.00;3.55;;;14.00;76.00;;;;;;5054540;28;20059;-69
2023/04/23 02:10:20;;;;;;;7.82;3.78;;;14.00;76.10;;;;;;5053861;28;20068;-68
2023/04/23 02:12:46;;;;;;;8.73;4.10;;;14.00;76.30;;;;;;5054345;28;20108;-68
2023/04/23 02:15:13;;;;;;;8.25;4.82;;;13.90;76.20;;;;;;5054374;28;20108;-69
2023/04/23 02:17:38;;;;;;;7.82;3.90;;;13.90;76.40;;;;;;5054793;28;20021;-70
2023/04/23 02:20:06;;;;;;;9.95;4.45;;;13.90;76.20;;;;;;5054031;28;20033;-72
2023/04/23 02:22:32;;;;;;;7.82;4.30;;;13.90;76.20;;;;;;5054863;28;20033;-70
2023/04/23 02:24:58;;;;;;;10.77;4.50;;;13.90;76.20;;;;;;5054328;28;20025;-69
2023/04/23 02:27:24;;;;;;;9.73;4.10;;;13.90;76.30;;;;;;5054486;28;20044;-70
2023/04/23 02:29:51;;;;;;;7.90;4.03;;;13.80;76.30;;;;;;5054000;28;20017;-70
2023/04/23 02:32:16;;;;;;;12.77;4.63;;;13.80;76.40;;;;;;5054444;28;20029;-69
2023/04/23 02:34:42;;;;;;;9.82;4.25;;;13.80;76.60;;;;;;5054782;28;20040;-69
2023/04/23 02:37:08;;;;;;;8.70;4.53;;;13.80;76.70;;;;;;5053221;28;20071;-71
2023/04/23 02:39:33;;;;;;;8.82;4.20;;;13.80;77.10;;;;;;5054390;28;20022;-69
2023/04/23 02:41:59;;;;;;;8.75;4.43;;;13.80;77.20;;;;;;5053977;28;20373;-70
2023/04/23 02:44:25;;;;;;;13.25;4.38;;;13.80;77.10;;;;;;5052456;28;20462;-69
2023/04/23 02:46:51;;;;;;;6.90;3.75;;;13.70;77.50;;;;;;5053837;28;20030;-70
2023/04/23 02:49:19;;;;;;;7.75;4.40;;;13.70;77.60;;;;;;5054243;28;20028;-69
2023/04/23 02:51:45;;;;;;;9.57;4.30;;;13.70;78.30;;;;;;5054165;28;20025;-69
2023/04/23 02:54:11;;;;;;;10.43;4.47;;;13.60;78.70;;;;;;5054071;28;20047;-69
2023/04/23 02:56:37;;;;;;;7.70;4.13;;;13.60;79.10;;;;;;5052733;28;20466;-69
2023/04/23 02:59:02;;;;;;;5.25;3.90;;;13.50;79.20;;;;;;5053639;28;20035;-70
2023/04/23 03:01:28;;;;;;;8.27;4.00;;;13.50;79.80;;;;;;5053974;28;20108;-69
2023/04/23 03:03:54;;;;;;;9.65;4.18;;;13.50;79.40;;;;;;5053239;28;20029;-69
2023/04/23 03:06:20;;;;;;;9.90;4.65;;;13.50;79.80;;;;;;5053813;28;20033;-69
2023/04/23 03:08:45;;;;;;;9.63;4.18;;;13.40;80.10;;;;;;5053842;28;20029;-69
2023/04/23 03:11:11;;;;;;;7.30;4.28;;;13.40;80.80;;;;;;5053073;28;20052;-69
2023/04/23 03:13:37;;;;;;;9.00;4.45;;;13.40;80.70;;;;;;5053631;28;20033;-69
2023/04/23 03:16:03;;;;;;;11.77;5.25;;;13.30;80.70;;;;;;5053159;28;20037;-70
2023/04/23 03:18:28;;;;;;;10.48;4.38;;;13.30;80.80;;;;;;5053858;28;20025;-69
2023/04/23 03:20:54;;;;;;;9.63;4.50;;;13.30;81.50;;;;;;5053218;28;20103;-70
2023/04/23 03:23:19;;;;;;;8.63;4.30;;;13.30;80.80;;;;;;5053693;28;20064;-69
2023/04/23 03:25:45;;;;;;;8.23;4.22;;;13.30;80.80;;;;;;5053261;28;20053;-69
2023/04/23 03:28:11;;;;;;;7.63;4.20;;;13.20;80.50;;;;;;5053087;28;20052;-69
2023/04/23 03:30:36;;;;;;;10.20;4.65;;;13.20;80.40;;;;;;5053049;28;20078;-69
2023/04/23 03:33:02;;;;;;;8.13;4.50;;;13.20;80.40;;;;;;5052619;28;20108;-70
2023/04/23 03:35:28;;;;;;;7.82;4.30;;;13.20;80.80;;;;;;5052425;28;20035;-70
2023/04/23 03:37:54;;;;;;;6.75;4.85;;;13.20;80.80;;;;;;5052941;28;20082;-70
2023/04/23 03:40:20;;;;;;;10.88;4.60;;;13.10;81.20;;;;;;5052029;28;20068;-69
2023/04/23 03:42:46;;;;;;;9.23;5.07;;;13.10;81.30;;;;;;5053294;28;20033;-69
2023/04/23 03:45:15;;;;;;;14.10;4.82;;;13.10;81.60;;;;;;5051093;28;20076;-69
2023/04/23 03:47:42;;;;;;;10.13;4.55;;;13.10;81.70;;;;;;5053057;28;20029;-69
2023/04/23 03:50:08;;;;;;;10.20;4.50;;;13.10;82.10;;;;;;5052394;28;20083;-69
2023/04/23 03:52:35;;;;;;;11.80;5.00;;;13.00;82.50;;;;;;5053034;28;20037;-69
2023/04/23 03:55:01;;;;;;;11.63;4.93;;;13.00;82.40;;;;;;5052630;28;20458;-69
2023/04/23 03:57:27;;;;;;;11.48;5.05;;;13.00;82.60;;;;;;5052994;28;20025;-69
2023/04/23 03:59:53;;;;;;;9.98;5.22;;;13.00;82.70;;;;;;5052569;28;20055;-70
2023/04/23 04:02:19;;;;;;;11.55;4.75;;;12.90;83.10;;;;;;5052967;28;20059;-72
2023/04/23 04:04:45;;;;;;;6.88;4.47;;;12.90;83.60;;;;;;5052824;28;20461;-69
2023/04/23 04:07:11;;;;;;;12.23;5.45;;;12.90;83.80;;;;;;5052002;28;20062;-70
2023/04/23 04:09:38;;;;;;;8.63;5.03;;;12.90;84.00;;;;;;5053221;28;20029;-69
2023/04/23 04:12:04;;;;;;;7.10;4.70;;;12.90;84.00;;;;;;5052236;28;20108;-69
2023/04/23 04:14:31;;;;;;;9.15;4.95;;;12.90;84.80;;;;;;5052510;28;20048;-71
2023/04/23 04:16:57;;;;;;;12.80;5.22;;;12.90;84.70;;;;;;5052194;28;20065;-69
2023/04/23 04:19:23;;;;;;;12.95;5.97;;;12.80;84.90;;;;;;5052623;28;20068;-69
2023/04/23 04:21:50;;;;;;;12.20;5.32;;;12.80;85.20;;;;;;5052476;28;20029;-70
2023/04/23 04:24:17;;;;;;;10.88;6.07;;;12.80;85.50;;;;;;5051826;28;20167;-69
2023/04/23 04:26:44;;;;;;;11.43;6.18;;;12.80;85.70;;;;;;5052360;28;20031;-69
2023/04/23 04:29:10;;;;;;;15.77;6.03;;;12.80;86.10;;;;;;5052173;28;20021;-68
2023/04/23 04:31:36;;;;;;;11.95;6.32;;;12.70;86.50;;;;;;5052755;28;20060;-69
2023/04/23 04:34:02;;;;;;;10.50;6.40;;;12.70;86.70;;;;;;5052470;28;20029;-69
2023/04/23 04:36:28;;;;;;;12.18;6.43;;;12.70;86.90;;;;;;5055240;28;20060;-69
2023/04/23 04:38:57;;;;;;;12.25;6.35;;;12.70;87.30;;;;;;5052439;28;20031;-74
2023/04/23 04:41:27;;;;;;;13.68;6.70;;;12.80;87.60;;;;;;5052174;28;20025;-69
2023/04/23 04:43:53;;;;;;;15.73;6.45;;;12.80;87.70;;;;;;5052834;28;20520;-70
2023/04/23 04:46:19;;;;;;;12.60;6.30;;;12.80;88.30;;;;;;5052485;28;20043;-69
2023/04/23 04:48:46;;;;;;;9.60;6.40;;;12.80;88.50;;;;;;5052553;28;20059;-69
2023/04/23 04:51:12;;;;;;;10.60;6.03;;;12.90;88.40;;;;;;5052061;28;20124;-69
2023/04/23 04:53:37;;;;;;;11.45;6.55;;;12.90;87.70;;;;;;5052388;28;20061;-69
2023/04/23 04:56:03;;;;;;;14.05;6.20;;;12.90;87.70;;;;;;5051928;28;20424;-68
2023/04/23 04:58:29;;;;;;;15.70;8.68;;;12.90;87.40;;;;;;5051040;28;20484;-68
2023/04/23 05:00:55;;;;;;;9.65;6.85;;;12.80;87.60;;;;;;5055422;28;20029;-70
2023/04/23 05:03:21;;;;;;;10.20;6.60;;;12.80;87.70;;;;;;5056089;28;20029;-68
2023/04/23 05:05:50;;;;;;;11.13;6.60;;;12.80;88.20;;;;;;5056643;28;20036;-68
2023/04/23 05:08:16;;;;;;;8.80;6.47;;;12.80;88.50;;;;;;5054682;28;20021;-69
2023/04/23 05:10:42;;;;;;;10.05;6.63;;;12.80;88.70;;;;;;5055622;28;20458;-69
2023/04/23 05:13:08;;;;;;;9.80;6.40;;;12.80;88.20;;;;;;5058308;28;20060;-68
2023/04/23 05:15:34;;;;;;;11.73;5.97;;;12.80;88.70;;;;;;5059434;28;20055;-68
2023/04/23 05:18:03;;;;;;;12.15;6.85;;;12.80;88.10;;;;;;5054496;28;20052;-69
2023/04/23 05:20:29;;;;;;;10.85;6.65;;;12.80;88.30;;;;;;5055924;28;20033;-69
2023/04/23 05:22:55;;;;;;;12.23;6.25;;;12.80;88.40;;;;;;5055570;28;20390;-69
2023/04/23 05:25:21;;;;;;;11.25;7.28;;;12.90;88.70;;;;;;5055470;28;20036;-69
2023/04/23 05:27:46;;;;;;;11.57;6.55;;;12.90;89.00;;;;;;5055843;28;20458;-69
2023/04/23 05:30:12;;;;;;;10.10;6.55;;;12.90;89.10;;;;;;5055451;28;20025;-68
2023/04/23 05:32:38;;;;;;;12.25;7.13;;;12.90;88.80;;;;;;5055601;28;20033;-68
2023/04/23 05:35:04;;;;;;;12.55;6.95;;;13.00;89.10;;;;;;5055255;28;20097;-69
2023/04/23 05:37:30;;;;;;;13.30;7.35;;;13.00;89.20;;;;;;5054216;28;20438;-68
2023/04/23 05:39:57;;;;;;;15.05;6.50;;;13.10;89.10;;;;;;5055289;28;20053;-68
2023/04/23 05:42:23;;;;;;;12.10;6.72;;;13.10;88.90;;;;;;5053918;28;20029;-70
2023/04/23 05:44:48;;;;;;;11.57;6.28;;;13.20;89.30;;;;;;5055132;28;20060;-69
2023/04/23 05:47:14;;;;;;;12.98;7.10;;;13.40;89.50;;;;;;5054921;28;20044;-70
2023/04/23 05:49:40;;;;;;;11.30;7.90;;;13.60;88.20;;;;;;5055380;28;20025;-70
2023/04/23 05:52:06;;;;;;;13.00;7.00;;;13.80;87.00;;;;;;5055256;28;20163;-70
2023/04/23 05:54:31;;;;;;;11.23;7.75;;;14.10;85.80;;;;;;5055514;28;20048;-70
2023/04/23 05:56:57;;;;;;;11.38;7.88;;;14.40;85.70;;;;;;5055234;28;20029;-70
2023/04/23 05:59:23;;;;;;;11.25;7.68;;;14.70;84.90;;;;;;5054771;28;20381;-70
2023/04/23 06:01:49;;;;;;;14.02;8.60;;;15.00;81.90;;;;;;5053605;28;20017;-70
2023/04/23 06:04:15;;;;;;;14.80;8.27;;;15.40;80.70;;;;;;5054644;28;20021;-69
2023/04/23 06:06:44;;;;;;;11.85;7.50;;;15.80;78.10;;;;;;5054897;28;20420;-70
2023/04/23 06:09:09;;;;;;;10.13;7.53;;;16.30;76.80;;;;;;5054585;28;20021;-69
2023/04/23 06:11:35;;;;;;;11.68;7.95;;;16.80;74.70;;;;;;5053508;28;20031;-68
2023/04/23 06:14:01;;;;;;;13.05;7.22;;;17.10;71.80;;;;;;5054559;28;20061;-69
2023/04/23 06:16:27;;;;;;;13.05;7.18;;;17.30;71.50;;;;;;5054626;28;20060;-70
2023/04/23 06:18:55;;;;;;;16.90;8.02;;;17.60;70.20;;;;;;5054765;28;20442;-69
2023/04/23 06:21:21;;;;;;;8.90;6.72;;;17.80;68.70;;;;;;5054198;28;20021;-69
2023/04/23 06:23:46;;;;;;;10.10;6.63;;;18.00;68.90;;;;;;5054590;28;20025;-70
2023/04/23 06:26:12;;;;;;;12.25;7.07;;;18.20;67.90;;;;;;5052888;28;20086;-70
2023/04/23 06:28:38;;;;;;;13.60;7.50;;;18.30;65.80;;;;;;5053556;28;20040;-70
2023/04/23 06:31:05;;;;;;;10.90;6.45;;;18.40;64.70;;;;;;5053908;28;20029;-74
2023/04/23 06:33:30;;;;;;;15.20;7.47;;;18.60;64.40;;;;;;5053993;28;20552;-70
2023/04/23 06:35:56;;;;;;;10.13;6.93;;;18.90;65.20;;;;;;5054198;28;20044;-69
2023/04/23 06:38:21;;;;;;;11.52;6.93;;;19.20;63.30;;;;;;5054223;28;20026;-70
2023/04/23 06:40:47;;;;;;;11.45;7.20;;;19.40;61.70;;;;;;5054281;28;20032;-69
2023/04/23 06:43:13;;;;;;;9.98;6.05;;;19.60;61.10;;;;;;5053569;28;20033;-69
2023/04/23 06:45:39;;;;;;;12.98;6.40;;;19.90;61.20;;;;;;5054232;28;20107;-69
2023/04/23 06:48:05;;;;;;;11.38;6.28;;;20.20;60.80;;;;;;5053865;28;20025;-73
2023/04/23 06:50:31;;;;;;;10.55;5.53;;;20.60;58.70;;;;;;5054122;28;20079;-69
2023/04/23 06:52:57;;;;;;;11.63;6.07;;;21.00;58.70;;;;;;5053929;28;20382;-69
2023/04/23 06:55:25;;;;;;;9.35;5.50;;;21.70;56.00;;;;;;5053494;28;20041;-70
2023/04/23 06:57:54;;;;;;;10.02;4.97;;;22.50;55.00;;;;;;5053865;28;20029;-70
2023/04/23 07:00:23;;;;;;;8.48;5.05;;;23.50;52.20;;;;;;5053241;28;20546;-70
2023/04/23 07:02:49;;;;;;;7.90;4.97;;;24.30;49.00;;;;;;5052783;28;20461;-70
2023/04/23 07:05:16;;;;;;;6.95;4.72;;;24.90;47.70;;;;;;5053416;28;20061;-70
2023/04/23 07:07:42;;;;;;;10.73;5.28;;;25.70;45.90;;;;;;5053603;28;20113;-70
2023/04/23 07:10:13;;;;;;;10.05;4.90;;;26.40;45.60;;;;;;5053177;28;20057;-70
2023/04/23 07:12:38;;;;;;;;;;;26.90;44.60;;;;;;5054145;28;20385;-70
2023/04/23 07:15:05;;;;;;;6.55;4.43;;;27.50;43.00;;;;;;5053712;28;19905;-70
2023/04/23 07:17:31;;;;;;;8.23;4.50;;;28.10;41.40;;;;;;5053379;28;20116;-70
2023/04/23 07:19:57;;;;;;;11.07;4.35;;;28.60;41.00;;;;;;5053034;28;20021;-70
2023/04/23 07:22:26;;;;;;;9.50;4.88;;;29.10;40.00;;;;;;5052260;28;20111;-70
2023/04/23 07:24:52;;;;;;;7.68;4.20;;;29.40;38.30;;;;;;5053212;28;20378;-70
2023/04/23 07:27:18;;;;;;;8.35;4.65;;;29.80;38.00;;;;;;5052851;28;20029;-70
2023/04/23 07:29:44;;;;;;;8.10;4.20;;;29.40;37.20;;;;;;5053117;28;20460;-70
2023/04/23 07:32:09;;;;;;;6.45;4.05;;;29.80;38.00;;;;;;5052855;28;20057;-71
2023/04/23 07:34:35;;;;;;;5.63;4.03;;;30.30;37.00;;;;;;5035273;28;20374;-70
2023/04/23 07:37:01;;;;;;;5.97;3.80;;;30.70;35.60;;;;;;5053106;28;20028;-70
2023/04/23 07:39:27;;;;;;;9.38;4.25;;;30.60;36.10;;;;;;5052574;28;20021;-70
2023/04/23 07:41:53;;;;;;;6.38;3.60;;;30.70;35.40;;;;;;5053067;28;20457;-70
2023/04/23 07:44:18;;;;;;;8.32;4.35;;;30.70;34.90;;;;;;5050692;28;20103;-70
2023/04/23 07:46:44;;;;;;;6.75;3.65;;;30.50;35.40;;;;;;5052649;28;20024;-70
2023/04/23 07:49:10;;;;;;;5.25;3.95;;;30.80;35.00;;;;;;5052934;28;20036;-73
2023/04/23 07:51:35;;;;;;;7.43;4.28;;;31.20;35.40;;;;;;5051386;28;20031;-70
2023/04/23 07:54:01;;;;;;;6.47;4.40;;;31.20;34.90;;;;;;5052382;28;20033;-70
2023/04/23 07:56:27;;;;;;;10.75;3.92;;;31.30;34.50;;;;;;5050626;28;20033;-69
2023/04/23 07:58:52;;;;;;;8.43;4.35;;;31.00;34.80;;;;;;5052484;28;20029;-69
2023/04/23 08:01:19;;;;;;;8.45;4.22;;;31.10;34.70;;;;;;5052102;28;20025;-70
2023/04/23 08:03:44;;;;;;;7.55;4.00;;;31.20;34.70;;;;;;5052596;28;20037;-69
2023/04/23 08:06:13;;;;;;;7.63;3.97;;;31.60;34.10;;;;;;5051863;28;20454;-70
2023/04/23 08:08:39;;;;;;;7.93;4.03;;;31.80;34.30;;;;;;5050933;28;20032;-64
2023/04/23 08:11:05;;;;;;;7.60;4.20;;;31.90;34.00;;;;;;5052311;28;20025;-64
2023/04/23 08:13:31;;;;;;;6.50;3.90;;;31.70;34.10;;;;;;5051842;28;20119;-66
2023/04/23 08:15:57;;;;;;;11.05;3.90;;;31.60;34.30;;;;;;5051851;28;20059;-65
2023/04/23 08:18:22;;;;;;;6.53;3.92;;;31.40;35.80;;;;;;5051092;28;20106;-65
2023/04/23 08:20:48;;;;;;;7.90;4.10;;;31.30;34.70;;;;;;5051780;28;20477;-66
2023/04/23 08:23:14;;;;;;;8.85;4.30;;;31.10;35.10;;;;;;5051308;28;20025;-67
2023/04/23 08:25:40;;;;;;;8.32;4.03;;;31.20;36.10;;;;;;5050724;28;20033;-66
2023/04/23 08:28:06;;;;;;;4.20;3.20;;;31.30;35.40;;;;;;5051480;28;20025;-66
2023/04/23 08:30:32;;;;;;;8.60;3.85;;;31.20;35.80;;;;;;5051574;28;20055;-66
2023/04/23 08:32:57;;;;;;;7.15;3.45;;;30.70;36.40;;;;;;5050762;28;20033;-66
2023/04/23 08:35:23;;;;;;;5.03;3.50;;;30.40;36.00;;;;;;5054083;28;20040;-66
2023/04/23 08:37:49;;;;;;;6.90;3.80;;;30.40;35.70;;;;;;5056325;28;20397;-66
2023/04/23 08:40:15;;;;;;;5.57;3.97;;;29.70;36.40;;;;;;5055774;28;20037;-66
2023/04/23 08:42:51;;;;;;;7.40;3.90;;;29.40;36.10;;;;;;5056143;28;20025;-66
2023/04/23 08:45:18;;;;;;;7.05;3.92;;;28.90;37.20;;;;;;5054024;28;20112;-67
2023/04/23 08:47:44;;;;;;;10.25;4.35;;;28.40;37.70;;;;;;5056093;28;20032;-67
2023/04/23 08:50:18;;;;;;;8.32;3.70;;;28.20;39.40;;;;;;5054609;28;20031;-66
2023/04/23 08:52:52;;;;;;;9.30;3.92;;;28.10;40.10;;;;;;5055661;28;20064;-66
2023/04/23 08:55:20;;;;;;;6.15;4.18;;;27.70;39.90;;;;;;5055074;28;20021;-67
2023/04/23 08:57:47;;;;;;;7.03;3.92;;;27.50;40.10;;;;;;5055077;28;20055;-65
2023/04/23 09:00:17;;;;;;;7.57;3.88;;;27.10;40.60;;;;;;5055478;28;20425;-67
2023/04/23 09:02:47;;;;;;;7.07;3.70;;;26.80;42.50;;;;;;5054923;28;20037;-67
2023/04/23 09:05:14;;;;;;;5.22;3.40;;;26.60;42.20;;;;;;5055623;28;20036;-66
2023/04/23 09:07:40;;;;;;;8.70;4.18;;;26.50;42.90;;;;;;5054966;28;20346;-66
2023/04/23 09:10:08;;;;;;;5.47;3.92;;;26.30;42.80;;;;;;5055467;28;20374;-64
2023/04/23 09:12:35;;;;;;;6.50;3.97;;;26.30;43.40;;;;;;5054819;28;20041;-67
2023/04/23 09:15:09;;;;;;;9.10;4.90;;;26.20;43.20;;;;;;5054872;28;20043;-66
2023/04/23 09:17:36;;;;;;;6.38;4.05;;;26.00;42.70;;;;;;5054912;28;20056;-67
2023/04/23 09:20:02;;;;;;;6.68;3.83;;;25.90;42.90;;;;;;5055145;28;20036;-66
2023/04/23 09:22:47;;;;;;;4.38;3.80;;;25.90;44.20;;;;;;5054815;28;20378;-65
2023/04/23 09:25:16;;;;;;;6.03;3.67;;;25.90;43.10;;;;;;5054769;28;20492;-66
2023/04/23 09:27:42;;;;;;;6.50;4.30;;;25.60;43.50;;;;;;5054588;28;20033;-65
2023/04/23 09:30:09;;;;;;;8.88;4.28;;;25.60;44.00;;;;;;5055120;28;20040;-66
2023/04/23 09:32:37;;;;;;;6.53;4.15;;;25.60;44.20;;;;;;5054317;28;20393;-66
2023/04/23 09:35:04;;;;;;;8.40;3.83;;;25.50;43.90;;;;;;5054742;28;20072;-66
2023/04/23 09:37:31;;;;;;;8.25;3.95;;;25.30;43.90;;;;;;5054418;28;20021;-67
2023/04/23 09:40:03;;;;;;;5.57;3.83;;;25.10;45.20;;;;;;5054819;28;20017;-67
2023/04/23 09:42:29;;;;;;;6.57;3.58;;;25.00;45.00;;;;;;5054381;28;20028;-66
2023/04/23 09:45:11;;;;;;;8.75;3.60;;;25.00;45.40;;;;;;5054198;28;20080;-66
2023/04/23 09:47:47;;;;;;;6.40;4.07;;;25.10;46.80;;;;;;5053893;28;20489;-65
2023/04/23 09:50:13;;;;;;;7.30;3.47;;;25.20;46.60;;;;;;5054452;28;20461;-66
2023/04/23 09:52:39;;;;;;;4.35;3.80;;;25.30;46.60;;;;;;5054301;28;20044;-65
2023/04/23 09:55:06;;;;;;;4.53;3.75;;;25.40;45.60;;;;;;5053154;28;20118;-65
2023/04/23 09:57:40;;;;;;;6.75;4.38;;;25.20;44.40;;;;;;5054091;28;20553;-67
2023/04/23 10:00:18;;;;;;;7.72;3.70;;;25.20;44.90;;;;;;5054084;28;20561;-66
2023/04/23 10:02:48;;;;;;;6.55;3.90;;;25.00;43.80;;;;;;5053174;28;20043;-66
2023/04/23 10:05:18;;;;;;;9.27;3.92;;;24.90;44.40;;;;;;5054068;28;20424;-66
2023/04/23 10:07:47;;;;;;;6.93;3.63;;;24.90;44.60;;;;;;5052482;28;20052;-65
2023/04/23 10:10:17;;;;;;;8.07;3.38;;;24.90;45.00;;;;;;5052840;28;20430;-66
2023/04/23 10:12:44;;;;;;;6.78;3.47;;;24.90;45.30;;;;;;5053669;28;20045;-66
2023/04/23 10:15:11;;;;;;;8.02;3.40;;;24.90;43.80;;;;;;5053598;28;20040;-68
2023/04/23 10:17:38;;;;;;;3.88;3.35;;;24.80;44.20;;;;;;5053174;28;20071;-67
2023/04/23 10:20:08;;;;;;;7.18;3.50;;;24.90;46.20;;;;;;5053575;28;20032;-67
2023/04/23 10:22:36;;;;;;;8.55;3.30;;;25.00;44.30;;;;;;5053192;28;20017;-67
2023/04/23 10:25:10;;;;;;;5.68;3.63;;;25.10;45.50;;;;;;5053535;28;20071;-66
2023/04/23 10:27:40;;;;;;;6.50;3.40;;;25.10;46.40;;;;;;5053410;28;20090;-63
2023/04/23 10:30:08;;;;;;;4.82;3.35;;;25.20;44.90;;;;;;5053317;28;20025;-64
2023/04/23 10:32:35;;;;;;;3.47;3.08;;;25.00;44.50;;;;;;5052663;28;20028;-64
2023/04/23 10:35:00;;;;;;;6.18;3.63;;;25.10;44.90;;;;;;5053143;28;20032;-64
2023/04/23 10:37:27;;;;;;;4.90;3.13;;;25.00;44.10;;;;;;5052888;28;20024;-64
2023/04/23 10:39:55;;;;;;;5.20;3.20;;;25.00;43.50;;;;;;5053338;28;20094;-64
2023/04/23 10:42:21;;;;;;;8.65;3.53;;;24.90;44.00;;;;;;5052922;28;20021;-64
2023/04/23 10:44:47;;;;;;;5.03;3.10;;;24.80;43.60;;;;;;5052478;28;20069;-63
2023/04/23 10:47:16;;;;;;;6.55;3.45;;;24.80;45.00;;;;;;5052796;28;20079;-64
2023/04/23 10:49:43;;;;;;;4.60;3.65;;;24.80;44.60;;;;;;5052524;28;20139;-63
2023/04/23 10:52:17;;;;;;;4.72;3.08;;;24.70;44.50;;;;;;5052735;28;20044;-63
2023/04/23 10:54:47;;;;;;;10.57;3.80;;;24.70;44.40;;;;;;5052849;28;20048;-64
2023/04/23 10:57:13;;;;;;;7.32;3.60;;;24.80;45.10;;;;;;5052315;28;20382;-63
2023/04/23 11:00:00;;;;;;;5.30;3.40;;;24.90;45.50;;;;;;5052614;28;20029;-64
2023/04/23 11:02:41;;;;;;;6.68;4.13;;;24.90;44.40;;;;;;5052142;28;20033;-64
2023/04/23 11:05:08;;;;;;;;;;;24.90;45.50;;;;;;5053677;28;20137;-64
2023/04/23 11:07:34;;;;;;;7.80;3.40;;;25.10;44.90;;;;;;5052619;28;19911;-63
2023/04/23 11:10:13;;;;;;;5.60;3.50;;;25.10;44.90;;;;;;5052643;28;20029;-63
2023/04/23 11:12:39;;;;;;;8.45;3.38;;;25.00;43.50;;;;;;5052279;28;20033;-63
2023/04/23 11:15:17;;;;;;;5.07;3.58;;;25.00;43.70;;;;;;5052463;28;20527;-64
2023/04/23 11:17:43;;;;;;;3.78;2.78;;;25.00;43.70;;;;;;5052331;28;20432;-63
2023/04/23 11:20:12;;;;;;;6.50;3.13;;;25.10;44.30;;;;;;5052543;28;20024;-63
2023/04/23 11:22:39;;;;;;;6.20;3.00;;;25.10;44.20;;;;;;5052396;28;20052;-64
2023/04/23 11:25:09;;;;;;;5.10;2.80;;;25.30;44.30;;;;;;5052700;28;20385;-64
2023/04/23 11:27:38;;;;;;;4.10;2.70;;;25.30;44.10;;;;;;5052322;28;20521;-64
2023/04/23 11:30:04;;;;;;;5.72;3.20;;;25.40;44.10;;;;;;5052477;28;20509;-63
2023/04/23 11:32:31;;;;;;;4.03;3.00;;;25.30;43.20;;;;;;5052326;28;20104;-68
2023/04/23 11:35:01;;;;;;;6.13;4.05;;;25.30;44.40;;;;;;5051439;28;20449;-64
2023/04/23 11:37:27;;;;;;;5.82;2.90;;;25.30;43.80;;;;;;5054500;28;20032;-68
2023/04/23 11:39:52;;;;;;;3.97;3.13;;;25.30;43.60;;;;;;5055407;28;20316;-66
2023/04/23 11:42:21;;;;;;;5.90;2.97;;;25.10;43.00;;;;;;5055943;28;20029;-67
2023/04/23 11:44:47;;;;;;;8.43;3.25;;;25.10;43.50;;;;;;5055332;28;20366;-66
2023/04/23 11:47:15;;;;;;;12.57;2.90;;;25.10;44.20;;;;;;5053967;28;20037;-67
2023/04/23 11:49:42;;;;;;;8.45;3.88;;;25.20;44.30;;;;;;5051918;28;20489;-68
2023/04/23 11:52:09;;;;;;;8.18;3.10;;;25.10;44.00;;;;;;5052734;28;20017;-67
2023/04/23 11:54:35;;;;;;;4.72;3.42;;;25.10;44.30;;;;;;5051919;28;20474;-68
2023/04/23 11:57:03;;;;;;;5.07;3.05;;;25.00;44.10;;;;;;5052792;28;20029;-67
2023/04/23 11:59:30;;;;;;;6.70;3.70;;;24.90;43.60;;;;;;5052387;28;20035;-67
2023/04/23 12:01:57;;;;;;;5.25;3.20;;;24.80;44.40;;;;;;5050621;28;20100;-68
2023/04/23 12:04:25;;;;;;;9.85;3.63;;;24.80;44.70;;;;;;5052299;28;20067;-69
2023/04/23 12:06:52;;;;;;;6.55;3.83;;;24.70;45.10;;;;;;5051951;28;20051;-70
2023/04/23 12:09:23;;;;;;;6.38;4.57;;;24.70;44.80;;;;;;5052238;28;20033;-68
2023/04/23 12:11:50;;;;;;;5.32;3.10;;;24.70;46.30;;;;;;5050589;28;20063;-69
2023/04/23 12:14:17;;;;;;;6.82;3.28;;;24.70;45.80;;;;;;5051963;28;20037;-68
2023/04/23 12:16:51;;;;;;;6.68;3.38;;;24.80;44.90;;;;;;5051920;28;20035;-68
2023/04/23 12:19:28;;;;;;;5.60;2.72;;;24.70;44.50;;;;;;5051411;28;20104;-69
2023/04/23 12:22:02;;;;;;;4.28;3.20;;;24.70;43.80;;;;;;5051406;28;20373;-68
2023/04/23 12:24:45;;;;;;;4.15;2.70;;;24.70;43.90;;;;;;5051543;28;20066;-69
2023/04/23 12:27:14;;;;;;;7.32;3.05;;;24.70;44.10;;;;;;5051755;28;20465;-69
2023/04/23 12:29:40;;;;;;;4.47;2.88;;;24.60;43.40;;;;;;5051524;28;20052;-69
2023/04/23 12:32:10;;;;;;;4.95;2.60;;;24.50;43.60;;;;;;5051856;28;20071;-69
2023/04/23 12:34:36;;;;;;;7.75;3.22;;;24.40;43.80;;;;;;5051772;28;20029;-69
2023/04/23 12:37:06;;;;;;;6.38;2.90;;;24.30;43.80;;;;;;5052169;28;20057;-67
2023/04/23 12:39:33;;;;;;;4.55;2.80;;;24.30;44.20;;;;;;5052045;28;20060;-68
2023/04/23 12:42:09;;;;;;;3.95;2.50;;;24.30;43.90;;;;;;5051734;28;20032;-67